sensor_id;sensor_type;location;lat;lon;timestamp;temperature;humidity
34099;DHT22;20374;49.474;10.944;2023-11-19T00:01:41;5.30;99.90
34099;DHT22;20374;49.474;10.944;2023-11-19T00:04:07;5.30;99.90
34099;DHT22;20374;49.474;10.944;2023-11-19T00:06:33;5.40;99.90
34099;DHT22;20374;49.474;10.944;2023-11-19T00:08:59;5.40;99.90
34099;DHT22;20374;49.474;10.944;2023-11-19T00:11:25;5.40;99.90
34099;DHT22;20374;49.474;10.944;2023-11-19T00:13:51;5.40;99.90
34099;DHT22;20374;49.474;10.944;2023-11-19T00:16:17;5.40;99.90
34099;DHT22;20374;49.474;10.944;2023-11-19T00:18:43;5.40;99.90
34099;DHT22;20374;49.474;10.944;2023-11-19T00:21:09;5.40;99.90
34099;DHT22;20374;49.474;10.944;2023-11-19T00:23:36;5.40;99.90
34099;DHT22;20374;49.474;10.944;2023-11-19T00:26:02;5.40;99.90
34099;DHT22;20374;49.474;10.944;2023-11-19T00:28:28;5.40;99.90
34099;DHT22;20374;49.474;10.944;2023-11-19T00:30:54;5.40;99.90
34099;DHT22;20374;49.474;10.944;2023-11-19T00:33:21;5.50;99.90
34099;DHT22;20374;49.474;10.944;2023-11-19T00:35:46;5.40;99.90
34099;DHT22;20374;49.474;10.944;2023-11-19T00:38:12;5.40;99.90
34099;DHT22;20374;49.474;10.944;2023-11-19T00:40:38;5.40;99.90
34099;DHT22;20374;49.474;10.944;2023-11-19T00:43:04;5.40;99.90
34099;DHT22;20374;49.474;10.944;2023-11-19T00:45:30;5.50;99.90
34099;DHT22;20374;49.474;10.944;2023-11-19T00:47:56;5.50;99.90
34099;DHT22;20374;49.474;10.944;2023-11-19T00:50:22;5.50;99.90
34099;DHT22;20374;49.474;10.944;2023-11-19T00:52:48;5.50;99.90
34099;DHT22;20374;49.474;10.944;2023-11-19T00:55:14;5.50;99.90
34099;DHT22;20374;49.474;10.944;2023-11-19T00:57:40;5.40;99.90
34099;DHT22;20374;49.474;10.944;2023-11-19T01:00:08;5.50;99.90
34099;DHT22;20374;49.474;10.944;2023-11-19T01:02:45;5.50;99.90
34099;DHT22;20374;49.474;10.944;2023-11-19T01:05:11;5.50;99.90
34099;DHT22;20374;49.474;10.944;2023-11-19T01:07:39;5.50;99.90
34099;DHT22;20374;49.474;10.944;2023-11-19T01:10:06;5.50;99.90
34099;DHT22;20374;49.474;10.944;2023-11-19T01:12:33;5.50;99.90
34099;DHT22;20374;49.474;10.944;2023-11-19T01:14:58;5.50;99.90
34099;DHT22;20374;49.474;10.944;2023-11-19T01:17:24;5.60;99.90
34099;DHT22;20374;49.474;10.944;2023-11-19T01:19:50;5.60;99.90
34099;DHT22;20374;49.474;10.944;2023-11-19T01:22:16;5.60;99.90
34099;DHT22;20374;49.474;10.944;2023-11-19T01:24:42;5.60;99.90
34099;DHT22;20374;49.474;10.944;2023-11-19T01:27:08;5.60;99.90
34099;DHT22;20374;49.474;10.944;2023-11-19T01:29:34;5.60;99.90
34099;DHT22;20374;49.474;10.944;2023-11-19T01:32:00;5.60;99.90
34099;DHT22;20374;49.474;10.944;2023-11-19T01:34:25;5.60;99.90
34099;DHT22;20374;49.474;10.944;2023-11-19T01:36:51;5.60;99.90
34099;DHT22;20374;49.474;10.944;2023-11-19T01:39:17;5.60;99.90
34099;DHT22;20374;49.474;10.944;2023-11-19T01:41:45;5.60;99.90
34099;DHT22;20374;49.474;10.944;2023-11-19T01:44:11;5.60;99.90
34099;DHT22;20374;49.474;10.944;2023-11-19T01:46:44;5.60;99.90
34099;DHT22;20374;49.474;10.944;2023-11-19T01:49:14;5.60;99.90
34099;DHT22;20374;49.474;10.944;2023-11-19T01:51:41;5.70;99.90
34099;DHT22;20374;49.474;10.944;2023-11-19T01:54:08;5.70;99.90
34099;DHT22;20374;49.474;10.944;2023-11-19T01:56:36;5.70;99.90
34099;DHT22;20374;49.474;10.944;2023-11-19T01:59:03;5.70;99.90
34099;DHT22;20374;49.474;10.944;2023-11-19T02:01:29;5.70;99.90
34099;DHT22;20374;49.474;10.944;2023-11-19T02:03:55;5.70;99.90
34099;DHT22;20374;49.474;10.944;2023-11-19T02:06:22;5.60;99.90
34099;DHT22;20374;49.474;10.944;2023-11-19T02:08:49;5.70;99.90
34099;DHT22;20374;49.474;10.944;2023-11-19T02:11:15;5.70;99.90
34099;DHT22;20374;49.474;10.944;2023-11-19T02:13:41;5.70;99.90
34099;DHT22;20374;49.474;10.944;2023-11-19T02:16:09;5.70;99.90
34099;DHT22;20374;49.474;10.944;2023-11-19T02:18:36;5.80;99.90
34099;DHT22;20374;49.474;10.944;2023-11-19T02:21:03;5.70;99.90
34099;DHT22;20374;49.474;10.944;2023-11-19T02:23:31;5.80;99.90
34099;DHT22;20374;49.474;10.944;2023-11-19T02:28:45;5.70;99.90
34099;DHT22;20374;49.474;10.944;2023-11-19T02:31:11;5.70;99.90
34099;DHT22;20374;49.474;10.944;2023-11-19T02:33:38;5.70;99.90
34099;DHT22;20374;49.474;10.944;2023-11-19T02:36:05;5.80;99.90
34099;DHT22;20374;49.474;10.944;2023-11-19T02:38:33;5.80;99.90
34099;DHT22;20374;49.474;10.944;2023-11-19T02:41:02;5.80;99.90
34099;DHT22;20374;49.474;10.944;2023-11-19T02:43:28;5.80;99.90
34099;DHT22;20374;49.474;10.944;2023-11-19T02:45:57;5.80;99.90
34099;DHT22;20374;49.474;10.944;2023-11-19T02:48:23;5.70;99.90
34099;DHT22;20374;49.474;10.944;2023-11-19T02:50:49;5.70;99.90
34099;DHT22;20374;49.474;10.944;2023-11-19T02:53:15;5.80;99.90
34099;DHT22;20374;49.474;10.944;2023-11-19T02:55:42;5.80;99.90
34099;DHT22;20374;49.474;10.944;2023-11-19T02:58:14;5.80;99.90
34099;DHT22;20374;49.474;10.944;2023-11-19T03:00:46;5.90;99.90
34099;DHT22;20374;49.474;10.944;2023-11-19T03:03:23;5.90;99.90
34099;DHT22;20374;49.474;10.944;2023-11-19T03:05:54;5.90;99.90
34099;DHT22;20374;49.474;10.944;2023-11-19T03:08:21;5.90;99.90
34099;DHT22;20374;49.474;10.944;2023-11-19T03:51:28;6.00;99.90
34099;DHT22;20374;49.474;10.944;2023-11-19T03:53:54;6.00;99.90
34099;DHT22;20374;49.474;10.944;2023-11-19T03:56:20;6.00;99.90
34099;DHT22;20374;49.474;10.944;2023-11-19T03:58:47;6.00;99.90
34099;DHT22;20374;49.474;10.944;2023-11-19T04:01:13;6.00;99.90
34099;DHT22;20374;49.474;10.944;2023-11-19T04:03:39;6.00;99.90
34099;DHT22;20374;49.474;10.944;2023-11-19T04:06:06;6.00;99.90
34099;DHT22;20374;49.474;10.944;2023-11-19T04:08:32;6.10;99.90
34099;DHT22;20374;49.474;10.944;2023-11-19T04:10:58;6.10;99.90
34099;DHT22;20374;49.474;10.944;2023-11-19T04:13:26;6.10;99.90
34099;DHT22;20374;49.474;10.944;2023-11-19T04:15:53;6.10;99.90
34099;DHT22;20374;49.474;10.944;2023-11-19T04:18:19;6.10;99.90
34099;DHT22;20374;49.474;10.944;2023-11-19T04:20:45;6.10;99.90
34099;DHT22;20374;49.474;10.944;2023-11-19T04:23:12;6.10;99.90
34099;DHT22;20374;49.474;10.944;2023-11-19T04:25:38;6.10;99.90
34099;DHT22;20374;49.474;10.944;2023-11-19T04:28:04;6.20;99.90
34099;DHT22;20374;49.474;10.944;2023-11-19T04:30:30;6.20;99.90
34099;DHT22;20374;49.474;10.944;2023-11-19T04:32:57;6.30;99.90
34099;DHT22;20374;49.474;10.944;2023-11-19T04:35:23;6.30;99.90
34099;DHT22;20374;49.474;10.944;2023-11-19T04:37:52;6.30;99.90
34099;DHT22;20374;49.474;10.944;2023-11-19T04:40:18;6.30;99.90
34099;DHT22;20374;49.474;10.944;2023-11-19T04:42:44;6.30;99.90
34099;DHT22;20374;49.474;10.944;2023-11-19T04:45:10;6.40;99.90
34099;DHT22;20374;49.474;10.944;2023-11-19T04:47:37;6.40;99.90
34099;DHT22;20374;49.474;10.944;2023-11-19T04:50:03;6.40;99.90
34099;DHT22;20374;49.474;10.944;2023-11-19T04:52:29;6.40;99.90
34099;DHT22;20374;49.474;10.944;2023-11-19T04:54:55;6.60;99.90
34099;DHT22;20374;49.474;10.944;2023-11-19T04:57:21;6.40;99.90
34099;DHT22;20374;49.474;10.944;2023-11-19T04:59:47;6.40;99.90
34099;DHT22;20374;49.474;10.944;2023-11-19T05:02:13;6.40;99.90
34099;DHT22;20374;49.474;10.944;2023-11-19T05:04:44;6.50;99.90
34099;DHT22;20374;49.474;10.944;2023-11-19T05:07:12;6.50;99.90
34099;DHT22;20374;49.474;10.944;2023-11-19T05:09:38;6.50;99.90
34099;DHT22;20374;49.474;10.944;2023-11-19T05:12:04;6.50;99.90
34099;DHT22;20374;49.474;10.944;2023-11-19T05:14:31;6.50;99.90
34099;DHT22;20374;49.474;10.944;2023-11-19T05:16:57;6.60;99.90
34099;DHT22;20374;49.474;10.944;2023-11-19T05:19:23;6.60;99.90
34099;DHT22;20374;49.474;10.944;2023-11-19T05:21:49;6.60;99.90
34099;DHT22;20374;49.474;10.944;2023-11-19T05:24:18;6.60;99.90
34099;DHT22;20374;49.474;10.944;2023-11-19T05:26:44;6.60;99.90
34099;DHT22;20374;49.474;10.944;2023-11-19T05:29:10;6.60;99.90
34099;DHT22;20374;49.474;10.944;2023-11-19T05:31:36;6.70;99.90
34099;DHT22;20374;49.474;10.944;2023-11-19T05:34:02;6.60;99.90
34099;DHT22;20374;49.474;10.944;2023-11-19T05:36:28;6.50;99.90
34099;DHT22;20374;49.474;10.944;2023-11-19T05:38:54;6.60;99.90
34099;DHT22;20374;49.474;10.944;2023-11-19T05:41:20;6.60;99.90
34099;DHT22;20374;49.474;10.944;2023-11-19T05:43:47;6.60;99.90
34099;DHT22;20374;49.474;10.944;2023-11-19T05:46:13;6.60;99.90
34099;DHT22;20374;49.474;10.944;2023-11-19T05:48:39;6.70;99.90
34099;DHT22;20374;49.474;10.944;2023-11-19T05:51:05;6.80;99.90
34099;DHT22;20374;49.474;10.944;2023-11-19T05:53:31;6.80;99.90
34099;DHT22;20374;49.474;10.944;2023-11-19T05:55:58;6.90;99.90
34099;DHT22;20374;49.474;10.944;2023-11-19T05:58:27;7.00;99.90
34099;DHT22;20374;49.474;10.944;2023-11-19T06:00:57;7.10;99.90
34099;DHT22;20374;49.474;10.944;2023-11-19T06:03:23;7.10;99.90
34099;DHT22;20374;49.474;10.944;2023-11-19T06:05:50;7.20;99.90
34099;DHT22;20374;49.474;10.944;2023-11-19T06:08:16;7.30;99.90
34099;DHT22;20374;49.474;10.944;2023-11-19T06:10:43;7.40;99.90
34099;DHT22;20374;49.474;10.944;2023-11-19T06:13:12;7.40;99.90
34099;DHT22;20374;49.474;10.944;2023-11-19T06:15:44;7.50;99.90
34099;DHT22;20374;49.474;10.944;2023-11-19T06:18:10;7.50;99.90
34099;DHT22;20374;49.474;10.944;2023-11-19T06:20:38;7.50;99.90
34099;DHT22;20374;49.474;10.944;2023-11-19T06:23:04;7.60;99.90
34099;DHT22;20374;49.474;10.944;2023-11-19T06:25:30;7.60;99.90
34099;DHT22;20374;49.474;10.944;2023-11-19T06:27:56;7.60;99.90
34099;DHT22;20374;49.474;10.944;2023-11-19T06:30:23;7.70;99.90
34099;DHT22;20374;49.474;10.944;2023-11-19T06:32:48;7.80;99.90
34099;DHT22;20374;49.474;10.944;2023-11-19T06:35:14;8.00;99.90
34099;DHT22;20374;49.474;10.944;2023-11-19T06:37:41;8.00;99.90
34099;DHT22;20374;49.474;10.944;2023-11-19T06:40:08;8.20;99.90
34099;DHT22;20374;49.474;10.944;2023-11-19T06:42:35;8.20;99.90
34099;DHT22;20374;49.474;10.944;2023-11-19T06:45:01;8.40;99.90
34099;DHT22;20374;49.474;10.944;2023-11-19T06:47:28;8.40;99.90
34099;DHT22;20374;49.474;10.944;2023-11-19T06:49:55;8.60;99.90
34099;DHT22;20374;49.474;10.944;2023-11-19T06:52:21;8.70;99.90
34099;DHT22;20374;49.474;10.944;2023-11-19T06:54:47;8.80;99.90
34099;DHT22;20374;49.474;10.944;2023-11-19T06:57:13;8.90;99.90
34099;DHT22;20374;49.474;10.944;2023-11-19T06:59:40;9.00;99.90
34099;DHT22;20374;49.474;10.944;2023-11-19T07:02:06;9.10;99.90
34099;DHT22;20374;49.474;10.944;2023-11-19T07:04:32;9.10;99.90
34099;DHT22;20374;49.474;10.944;2023-11-19T07:07:01;9.20;99.90
34099;DHT22;20374;49.474;10.944;2023-11-19T07:09:27;9.30;99.90
34099;DHT22;20374;49.474;10.944;2023-11-19T07:11:53;9.30;99.90
34099;DHT22;20374;49.474;10.944;2023-11-19T07:14:19;9.40;99.90
34099;DHT22;20374;49.474;10.944;2023-11-19T07:16:45;9.40;99.90
34099;DHT22;20374;49.474;10.944;2023-11-19T07:19:16;9.50;99.90
34099;DHT22;20374;49.474;10.944;2023-11-19T07:21:42;9.60;99.90
34099;DHT22;20374;49.474;10.944;2023-11-19T07:24:10;9.50;99.90
34099;DHT22;20374;49.474;10.944;2023-11-19T07:26:45;9.60;99.90
34099;DHT22;20374;49.474;10.944;2023-11-19T07:29:13;9.60;99.90
34099;DHT22;20374;49.474;10.944;2023-11-19T07:31:39;9.60;99.90
34099;DHT22;20374;49.474;10.944;2023-11-19T07:34:05;9.70;99.90
34099;DHT22;20374;49.474;10.944;2023-11-19T07:36:32;9.70;99.90
34099;DHT22;20374;49.474;10.944;2023-11-19T07:38:58;9.70;99.90
34099;DHT22;20374;49.474;10.944;2023-11-19T07:41:24;9.70;99.90
34099;DHT22;20374;49.474;10.944;2023-11-19T07:43:51;9.70;99.90
34099;DHT22;20374;49.474;10.944;2023-11-19T07:46:18;9.80;99.90
34099;DHT22;20374;49.474;10.944;2023-11-19T07:48:47;9.80;99.90
34099;DHT22;20374;49.474;10.944;2023-11-19T07:51:13;9.90;99.90
34099;DHT22;20374;49.474;10.944;2023-11-19T07:53:40;9.90;99.90
34099;DHT22;20374;49.474;10.944;2023-11-19T07:56:07;10.00;99.90
34099;DHT22;20374;49.474;10.944;2023-11-19T07:58:33;10.00;99.90
34099;DHT22;20374;49.474;10.944;2023-11-19T08:00:59;10.00;99.90
34099;DHT22;20374;49.474;10.944;2023-11-19T08:03:25;10.00;99.90
34099;DHT22;20374;49.474;10.944;2023-11-19T08:05:51;10.00;99.90
34099;DHT22;20374;49.474;10.944;2023-11-19T08:08:17;10.10;99.90
34099;DHT22;20374;49.474;10.944;2023-11-19T08:10:43;10.10;99.90
34099;DHT22;20374;49.474;10.944;2023-11-19T08:13:12;10.10;99.90
34099;DHT22;20374;49.474;10.944;2023-11-19T08:15:38;10.10;99.90
34099;DHT22;20374;49.474;10.944;2023-11-19T08:18:04;10.20;99.90
34099;DHT22;20374;49.474;10.944;2023-11-19T08:20:31;10.30;99.90
34099;DHT22;20374;49.474;10.944;2023-11-19T08:22:56;10.20;99.90
34099;DHT22;20374;49.474;10.944;2023-11-19T08:25:23;10.30;99.90
34099;DHT22;20374;49.474;10.944;2023-11-19T08:27:49;10.30;99.90
34099;DHT22;20374;49.474;10.944;2023-11-19T08:30:15;10.40;99.90
34099;DHT22;20374;49.474;10.944;2023-11-19T08:32:41;10.40;99.90
34099;DHT22;20374;49.474;10.944;2023-11-19T08:35:07;10.50;99.90
34099;DHT22;20374;49.474;10.944;2023-11-19T08:37:33;10.50;99.90
34099;DHT22;20374;49.474;10.944;2023-11-19T08:40:02;10.60;99.90
34099;DHT22;20374;49.474;10.944;2023-11-19T08:42:30;10.60;99.90
34099;DHT22;20374;49.474;10.944;2023-11-19T08:44:55;10.70;99.90
34099;DHT22;20374;49.474;10.944;2023-11-19T08:47:22;10.70;99.90
34099;DHT22;20374;49.474;10.944;2023-11-19T08:49:51;10.80;99.90
34099;DHT22;20374;49.474;10.944;2023-11-19T08:52:18;10.90;99.90
34099;DHT22;20374;49.474;10.944;2023-11-19T08:54:44;11.00;99.90
34099;DHT22;20374;49.474;10.944;2023-11-19T08:57:10;11.00;99.90
34099;DHT22;20374;49.474;10.944;2023-11-19T08:59:36;11.10;99.90
34099;DHT22;20374;49.474;10.944;2023-11-19T09:02:04;11.20;99.90
34099;DHT22;20374;49.474;10.944;2023-11-19T09:04:30;11.30;99.90
34099;DHT22;20374;49.474;10.944;2023-11-19T09:06:58;11.50;99.90
34099;DHT22;20374;49.474;10.944;2023-11-19T09:09:24;11.60;99.90
34099;DHT22;20374;49.474;10.944;2023-11-19T09:11:49;11.70;99.90
34099;DHT22;20374;49.474;10.944;2023-11-19T09:14:16;11.80;99.90
34099;DHT22;20374;49.474;10.944;2023-11-19T09:16:41;11.90;99.90
34099;DHT22;20374;49.474;10.944;2023-11-19T09:19:07;12.00;99.90
34099;DHT22;20374;49.474;10.944;2023-11-19T09:21:33;12.00;99.90
34099;DHT22;20374;49.474;10.944;2023-11-19T09:24:02;11.90;99.90
34099;DHT22;20374;49.474;10.944;2023-11-19T09:26:28;11.90;99.90
34099;DHT22;20374;49.474;10.944;2023-11-19T09:28:54;11.90;99.90
34099;DHT22;20374;49.474;10.944;2023-11-19T09:31:20;11.90;99.90
34099;DHT22;20374;49.474;10.944;2023-11-19T09:33:46;11.90;99.90
34099;DHT22;20374;49.474;10.944;2023-11-19T09:36:12;11.90;99.90
34099;DHT22;20374;49.474;10.944;2023-11-19T09:38:43;11.90;99.90
34099;DHT22;20374;49.474;10.944;2023-11-19T09:41:10;11.90;99.90
34099;DHT22;20374;49.474;10.944;2023-11-19T09:43:39;11.90;99.90
34099;DHT22;20374;49.474;10.944;2023-11-19T09:46:08;11.80;99.90
34099;DHT22;20374;49.474;10.944;2023-11-19T09:48:37;11.80;99.90
34099;DHT22;20374;49.474;10.944;2023-11-19T09:51:08;11.80;99.90
34099;DHT22;20374;49.474;10.944;2023-11-19T09:53:35;11.80;99.90
34099;DHT22;20374;49.474;10.944;2023-11-19T09:56:05;11.70;99.90
34099;DHT22;20374;49.474;10.944;2023-11-19T09:58:34;11.70;99.90
34099;DHT22;20374;49.474;10.944;2023-11-19T10:01:01;11.70;99.90
34099;DHT22;20374;49.474;10.944;2023-11-19T10:03:33;11.70;99.90
34099;DHT22;20374;49.474;10.944;2023-11-19T10:06:05;11.80;99.90
34099;DHT22;20374;49.474;10.944;2023-11-19T10:08:32;12.00;99.90
34099;DHT22;20374;49.474;10.944;2023-11-19T10:10:58;12.10;99.90
34099;DHT22;20374;49.474;10.944;2023-11-19T10:13:28;12.10;99.90
34099;DHT22;20374;49.474;10.944;2023-11-19T10:15:56;12.10;99.90
34099;DHT22;20374;49.474;10.944;2023-11-19T10:18:26;12.20;99.90
34099;DHT22;20374;49.474;10.944;2023-11-19T10:20:53;12.20;99.90
34099;DHT22;20374;49.474;10.944;2023-11-19T10:23:19;12.20;99.90
34099;DHT22;20374;49.474;10.944;2023-11-19T10:25:45;12.20;99.90
34099;DHT22;20374;49.474;10.944;2023-11-19T10:28:11;12.10;99.90
34099;DHT22;20374;49.474;10.944;2023-11-19T10:30:37;12.00;99.90
34099;DHT22;20374;49.474;10.944;2023-11-19T10:33:10;12.00;99.90
34099;DHT22;20374;49.474;10.944;2023-11-19T10:35:54;11.90;99.90
34099;DHT22;20374;49.474;10.944;2023-11-19T10:38:20;11.90;99.90
34099;DHT22;20374;49.474;10.944;2023-11-19T10:40:48;11.80;99.90
34099;DHT22;20374;49.474;10.944;2023-11-19T10:43:15;11.80;99.90
34099;DHT22;20374;49.474;10.944;2023-11-19T10:45:41;11.80;99.90
34099;DHT22;20374;49.474;10.944;2023-11-19T10:48:07;11.80;99.90
34099;DHT22;20374;49.474;10.944;2023-11-19T10:50:34;12.00;99.90
34099;DHT22;20374;49.474;10.944;2023-11-19T10:53:00;12.10;99.90
34099;DHT22;20374;49.474;10.944;2023-11-19T10:55:31;12.10;99.90
34099;DHT22;20374;49.474;10.944;2023-11-19T10:58:03;12.20;99.90
34099;DHT22;20374;49.474;10.944;2023-11-19T11:00:54;12.30;99.90
34099;DHT22;20374;49.474;10.944;2023-11-19T11:03:24;12.50;99.90
34099;DHT22;20374;49.474;10.944;2023-11-19T11:05:52;12.60;99.90
34099;DHT22;20374;49.474;10.944;2023-11-19T11:08:19;12.70;99.90
34099;DHT22;20374;49.474;10.944;2023-11-19T11:10:53;12.80;99.90
34099;DHT22;20374;49.474;10.944;2023-11-19T11:13:19;12.80;99.90
34099;DHT22;20374;49.474;10.944;2023-11-19T11:15:45;12.70;99.90
34099;DHT22;20374;49.474;10.944;2023-11-19T11:18:13;12.80;99.90
34099;DHT22;20374;49.474;10.944;2023-11-19T11:20:39;12.90;99.90
34099;DHT22;20374;49.474;10.944;2023-11-19T11:26:38;13.20;99.90
34099;DHT22;20374;49.474;10.944;2023-11-19T11:32:16;13.40;99.90
34099;DHT22;20374;49.474;10.944;2023-11-19T11:39:34;13.60;99.90
34099;DHT22;20374;49.474;10.944;2023-11-19T11:50:18;13.50;99.90
34099;DHT22;20374;49.474;10.944;2023-11-19T11:57:58;13.30;99.90
34099;DHT22;20374;49.474;10.944;2023-11-19T12:00:37;13.20;99.90
34099;DHT22;20374;49.474;10.944;2023-11-19T12:03:05;13.20;99.90
34099;DHT22;20374;49.474;10.944;2023-11-19T12:05:32;13.10;99.90
34099;DHT22;20374;49.474;10.944;2023-11-19T12:08:06;13.10;99.90
34099;DHT22;20374;49.474;10.944;2023-11-19T12:10:47;13.00;99.90
34099;DHT22;20374;49.474;10.944;2023-11-19T12:13:14;12.90;99.90
34099;DHT22;20374;49.474;10.944;2023-11-19T12:18:27;12.80;99.90
34099;DHT22;20374;49.474;10.944;2023-11-19T12:20:54;12.80;99.90
34099;DHT22;20374;49.474;10.944;2023-11-19T12:23:19;13.00;99.90
34099;DHT22;20374;49.474;10.944;2023-11-19T12:25:46;13.10;99.90
34099;DHT22;20374;49.474;10.944;2023-11-19T12:28:13;13.50;99.90
34099;DHT22;20374;49.474;10.944;2023-11-19T12:30:39;14.00;99.90
34099;DHT22;20374;49.474;10.944;2023-11-19T12:33:09;14.20;99.90
34099;DHT22;20374;49.474;10.944;2023-11-19T12:35:46;14.50;99.90
34099;DHT22;20374;49.474;10.944;2023-11-19T12:38:25;14.60;99.90
34099;DHT22;20374;49.474;10.944;2023-11-19T12:41:05;15.00;99.90
34099;DHT22;20374;49.474;10.944;2023-11-19T12:43:31;15.40;99.90
34099;DHT22;20374;49.474;10.944;2023-11-19T12:45:57;15.30;99.90
34099;DHT22;20374;49.474;10.944;2023-11-19T12:48:23;15.40;99.90
34099;DHT22;20374;49.474;10.944;2023-11-19T12:50:55;15.70;99.90
34099;DHT22;20374;49.474;10.944;2023-11-19T12:53:22;16.00;99.90
34099;DHT22;20374;49.474;10.944;2023-11-19T12:55:49;16.30;99.90
34099;DHT22;20374;49.474;10.944;2023-11-19T12:58:35;16.60;99.90
34099;DHT22;20374;49.474;10.944;2023-11-19T13:01:06;16.90;99.90
34099;DHT22;20374;49.474;10.944;2023-11-19T13:03:37;17.30;99.90
34099;DHT22;20374;49.474;10.944;2023-11-19T13:06:05;17.90;99.90
34099;DHT22;20374;49.474;10.944;2023-11-19T13:08:43;18.20;99.90
34099;DHT22;20374;49.474;10.944;2023-11-19T13:11:14;18.60;99.90
34099;DHT22;20374;49.474;10.944;2023-11-19T13:14:00;19.00;99.90
34099;DHT22;20374;49.474;10.944;2023-11-19T13:16:27;18.20;99.90
34099;DHT22;20374;49.474;10.944;2023-11-19T13:18:53;17.60;99.90
34099;DHT22;20374;49.474;10.944;2023-11-19T13:21:19;16.50;99.90
34099;DHT22;20374;49.474;10.944;2023-11-19T13:23:45;15.80;99.90
34099;DHT22;20374;49.474;10.944;2023-11-19T13:26:11;15.50;99.90
34099;DHT22;20374;49.474;10.944;2023-11-19T13:28:38;15.20;99.90
34099;DHT22;20374;49.474;10.944;2023-11-19T13:31:04;15.50;99.90
34099;DHT22;20374;49.474;10.944;2023-11-19T13:33:30;15.70;99.90
34099;DHT22;20374;49.474;10.944;2023-11-19T13:35:57;15.50;99.90
34099;DHT22;20374;49.474;10.944;2023-11-19T13:38:23;15.30;99.90
34099;DHT22;20374;49.474;10.944;2023-11-19T13:40:50;15.20;99.90
34099;DHT22;20374;49.474;10.944;2023-11-19T13:43:16;15.20;99.90
34099;DHT22;20374;49.474;10.944;2023-11-19T13:45:42;15.00;99.90
34099;DHT22;20374;49.474;10.944;2023-11-19T13:48:08;14.80;99.90
34099;DHT22;20374;49.474;10.944;2023-11-19T13:50:35;14.60;99.90
34099;DHT22;20374;49.474;10.944;2023-11-19T13:53:01;14.40;99.90
34099;DHT22;20374;49.474;10.944;2023-11-19T13:55:27;14.20;99.90
34099;DHT22;20374;49.474;10.944;2023-11-19T13:57:52;14.20;99.90
34099;DHT22;20374;49.474;10.944;2023-11-19T14:00:18;14.00;99.90
34099;DHT22;20374;49.474;10.944;2023-11-19T14:02:47;14.00;99.90
34099;DHT22;20374;49.474;10.944;2023-11-19T14:05:14;14.00;99.90
34099;DHT22;20374;49.474;10.944;2023-11-19T14:07:43;14.00;99.90
34099;DHT22;20374;49.474;10.944;2023-11-19T14:10:10;14.30;99.90
34099;DHT22;20374;49.474;10.944;2023-11-19T14:12:39;14.80;99.90
34099;DHT22;20374;49.474;10.944;2023-11-19T14:15:06;15.10;99.90
34099;DHT22;20374;49.474;10.944;2023-11-19T14:17:33;15.20;99.90
34099;DHT22;20374;49.474;10.944;2023-11-19T14:20:00;15.30;99.90
34099;DHT22;20374;49.474;10.944;2023-11-19T14:22:26;15.10;99.90
34099;DHT22;20374;49.474;10.944;2023-11-19T14:24:52;14.80;99.90
34099;DHT22;20374;49.474;10.944;2023-11-19T14:27:18;14.50;99.90
34099;DHT22;20374;49.474;10.944;2023-11-19T14:29:44;14.20;99.90
34099;DHT22;20374;49.474;10.944;2023-11-19T14:32:12;13.90;99.90
34099;DHT22;20374;49.474;10.944;2023-11-19T14:34:38;13.60;99.90
34099;DHT22;20374;49.474;10.944;2023-11-19T14:37:04;13.50;99.90
34099;DHT22;20374;49.474;10.944;2023-11-19T14:39:30;13.30;99.90
34099;DHT22;20374;49.474;10.944;2023-11-19T14:41:59;13.30;99.90
34099;DHT22;20374;49.474;10.944;2023-11-19T14:44:30;13.10;99.90
34099;DHT22;20374;49.474;10.944;2023-11-19T14:46:56;13.10;99.90
34099;DHT22;20374;49.474;10.944;2023-11-19T14:49:22;13.10;99.90
34099;DHT22;20374;49.474;10.944;2023-11-19T14:51:50;13.00;99.90
34099;DHT22;20374;49.474;10.944;2023-11-19T14:54:16;13.00;99.90
34099;DHT22;20374;49.474;10.944;2023-11-19T14:56:42;13.00;99.90
34099;DHT22;20374;49.474;10.944;2023-11-19T14:59:08;13.10;99.90
34099;DHT22;20374;49.474;10.944;2023-11-19T15:01:33;13.10;99.90
34099;DHT22;20374;49.474;10.944;2023-11-19T15:03:59;13.10;99.90
34099;DHT22;20374;49.474;10.944;2023-11-19T15:06:26;13.00;99.90
34099;DHT22;20374;49.474;10.944;2023-11-19T15:08:54;12.90;99.90
34099;DHT22;20374;49.474;10.944;2023-11-19T15:11:22;12.90;99.90
34099;DHT22;20374;49.474;10.944;2023-11-19T15:13:49;12.80;99.90
34099;DHT22;20374;49.474;10.944;2023-11-19T15:16:15;12.70;99.90
34099;DHT22;20374;49.474;10.944;2023-11-19T15:18:47;12.60;99.90
34099;DHT22;20374;49.474;10.944;2023-11-19T15:21:13;12.60;99.90
34099;DHT22;20374;49.474;10.944;2023-11-19T15:23:40;12.60;99.90
34099;DHT22;20374;49.474;10.944;2023-11-19T15:26:06;12.60;99.90
34099;DHT22;20374;49.474;10.944;2023-11-19T15:28:38;12.60;99.90
34099;DHT22;20374;49.474;10.944;2023-11-19T15:31:04;12.50;99.90
34099;DHT22;20374;49.474;10.944;2023-11-19T15:33:30;12.40;99.90
34099;DHT22;20374;49.474;10.944;2023-11-19T15:35:56;12.40;99.90
34099;DHT22;20374;49.474;10.944;2023-11-19T15:38:22;12.40;99.90
34099;DHT22;20374;49.474;10.944;2023-11-19T15:40:48;12.30;99.90
34099;DHT22;20374;49.474;10.944;2023-11-19T15:43:14;12.30;99.90
34099;DHT22;20374;49.474;10.944;2023-11-19T15:45:40;12.30;99.90
34099;DHT22;20374;49.474;10.944;2023-11-19T15:48:06;12.30;99.90
34099;DHT22;20374;49.474;10.944;2023-11-19T15:50:32;12.30;99.90
34099;DHT22;20374;49.474;10.944;2023-11-19T15:52:58;12.30;99.90
34099;DHT22;20374;49.474;10.944;2023-11-19T15:55:24;12.20;99.90
34099;DHT22;20374;49.474;10.944;2023-11-19T15:57:50;12.10;99.90
34099;DHT22;20374;49.474;10.944;2023-11-19T16:00:17;12.10;99.90
34099;DHT22;20374;49.474;10.944;2023-11-19T16:02:43;12.10;99.90
34099;DHT22;20374;49.474;10.944;2023-11-19T16:05:09;12.20;99.90
34099;DHT22;20374;49.474;10.944;2023-11-19T16:07:35;12.30;99.90
34099;DHT22;20374;49.474;10.944;2023-11-19T16:10:02;12.30;99.90
34099;DHT22;20374;49.474;10.944;2023-11-19T16:12:30;12.30;99.90
34099;DHT22;20374;49.474;10.944;2023-11-19T16:14:56;12.30;99.90
34099;DHT22;20374;49.474;10.944;2023-11-19T16:17:22;12.30;99.90
34099;DHT22;20374;49.474;10.944;2023-11-19T16:19:49;12.40;99.90
34099;DHT22;20374;49.474;10.944;2023-11-19T16:22:15;12.40;99.90
34099;DHT22;20374;49.474;10.944;2023-11-19T16:24:41;12.40;99.90
34099;DHT22;20374;49.474;10.944;2023-11-19T16:27:07;12.40;99.90
34099;DHT22;20374;49.474;10.944;2023-11-19T16:29:34;12.30;99.90
34099;DHT22;20374;49.474;10.944;2023-11-19T16:31:59;12.30;99.90
34099;DHT22;20374;49.474;10.944;2023-11-19T16:34:25;12.30;99.90